Time;durP1;ratioP1;P1;durP2;ratioP2;P2;SDS_P1;SDS_P2;PMS_P1;PMS_P2;Temp;Humidity;BMP_temperature;BMP_pressure;BME280_temperature;BME280_humidity;BME280_pressure;Samples;Min_cycle;Max_cycle;Signal;HPM_P1;HPM_P2
2023/09/28 00:01:18;;;;;;;9.38;7.53;;;;;;;18.22;100.00;101141.22;5011677;28;20116;-74
2023/09/28 00:03:45;;;;;;;11.30;8.15;;;;;;;18.24;100.00;101144.44;5010122;28;20535;-74
2023/09/28 00:06:10;;;;;;;13.18;8.52;;;;;;;18.19;100.00;101145.69;5010836;28;20084;-74
2023/09/28 00:08:36;;;;;;;10.45;7.65;;;;;;;18.24;100.00;101150.91;5011364;28;20030;-73
2023/09/28 00:11:02;;;;;;;10.32;7.05;;;;;;;18.18;100.00;101154.63;5013344;28;20025;-72
2023/09/28 00:13:27;;;;;;;10.68;7.85;;;;;;;18.19;100.00;101150.56;5019427;28;20029;-74
2023/09/28 00:15:53;;;;;;;10.90;7.18;;;;;;;18.15;100.00;101152.63;5010723;28;20029;-72
2023/09/28 00:18:19;;;;;;;9.05;7.82;;;;;;;18.14;100.00;101151.03;5014870;28;20033;-71
2023/09/28 00:20:44;;;;;;;9.00;7.05;;;;;;;17.96;100.00;101134.25;5011701;28;20489;-72
2023/09/28 00:23:10;;;;;;;9.40;7.70;;;;;;;18.17;100.00;101164.34;5012179;28;20518;-72
2023/09/28 00:25:35;;;;;;;12.85;6.20;;;;;;;18.16;100.00;101157.88;5012619;28;20044;-72
2023/09/28 00:28:01;;;;;;;9.93;6.45;;;;;;;18.13;100.00;101169.25;5011545;28;20489;-72
2023/09/28 00:30:26;;;;;;;8.85;6.55;;;;;;;18.09;100.00;101160.81;5020847;28;20033;-73
2023/09/28 00:32:54;;;;;;;11.13;7.90;;;;;;;18.11;100.00;101154.69;5015983;28;20056;-72
2023/09/28 00:35:20;;;;;;;10.02;7.30;;;;;;;18.11;100.00;101160.38;5017936;28;20121;-72
2023/09/28 00:37:46;;;;;;;6.97;5.78;;;;;;;18.05;100.00;101158.00;5013630;28;20036;-72
2023/09/28 00:40:20;;;;;;;8.90;7.25;;;;;;;18.02;100.00;101170.19;5012288;28;20025;-71
2023/09/28 00:42:48;;;;;;;10.45;6.80;;;;;;;18.02;100.00;101173.00;5024242;28;20025;-72
2023/09/28 00:45:14;;;;;;;10.65;7.30;;;;;;;18.03;100.00;101168.16;5015721;28;20434;-71
2023/09/28 00:47:40;;;;;;;8.10;6.07;;;;;;;17.97;100.00;101162.16;5013186;28;20428;-72
2023/09/28 00:50:09;;;;;;;11.70;7.10;;;;;;;17.95;100.00;101166.63;5012249;28;20200;-72
2023/09/28 00:52:37;;;;;;;13.88;6.65;;;;;;;17.91;100.00;101163.84;5015128;28;20091;-71
2023/09/28 00:55:04;;;;;;;11.07;6.85;;;;;;;17.90;100.00;101158.59;5014617;28;20468;-73
2023/09/28 00:57:33;;;;;;;9.95;7.88;;;;;;;17.86;100.00;101158.66;5012374;28;20017;-73
2023/09/28 00:59:59;;;;;;;10.60;6.03;;;;;;;17.84;100.00;101169.59;5014257;28;20474;-72
2023/09/28 01:02:26;;;;;;;11.23;7.05;;;;;;;17.84;100.00;101169.59;5016947;28;22489;-73
2023/09/28 01:04:51;;;;;;;9.77;7.43;;;;;;;17.82;100.00;101166.34;5021841;28;20065;-71
2023/09/28 01:07:27;;;;;;;10.32;6.80;;;;;;;17.79;100.00;101167.19;5016453;28;20126;-71
2023/09/28 01:09:53;;;;;;;12.15;7.07;;;;;;;17.76;100.00;101163.16;5013198;28;20061;-74
2023/09/28 01:12:22;;;;;;;10.55;7.70;;;;;;;17.74;100.00;101162.00;5014585;28;20057;-74
2023/09/28 01:14:49;;;;;;;10.98;6.95;;;;;;;17.75;100.00;101166.41;5014389;28;20038;-74
2023/09/28 01:17:16;;;;;;;9.90;6.53;;;;;;;17.72;100.00;101167.25;5017876;28;20043;-74
2023/09/28 01:19:42;;;;;;;9.02;6.70;;;;;;;17.62;100.00;101169.75;5011646;28;20044;-74
2023/09/28 01:22:13;;;;;;;11.70;6.32;;;;;;;17.62;100.00;101181.09;5018079;28;20022;-74
2023/09/28 01:24:39;;;;;;;10.90;6.57;;;;;;;17.60;100.00;101175.06;5014686;28;20152;-74
2023/09/28 01:27:06;;;;;;;9.75;6.68;;;;;;;17.63;100.00;101176.25;5015989;28;20045;-74
2023/09/28 01:29:31;;;;;;;7.13;5.93;;;;;;;17.62;100.00;101181.09;5017161;28;20041;-74
2023/09/28 01:31:57;;;;;;;9.18;7.15;;;;;;;17.61;100.00;101179.50;5012883;28;20088;-74
2023/09/28 01:34:23;;;;;;;9.82;7.40;;;;;;;17.58;100.00;101177.53;5011447;28;20133;-74
2023/09/28 01:36:48;;;;;;;7.70;5.95;;;;;;;17.51;100.00;101166.25;5016149;28;20603;-74
2023/09/28 01:39:14;;;;;;;9.10;6.15;;;;;;;17.52;100.00;101170.69;5013115;28;20112;-75
2023/09/28 01:41:39;;;;;;;10.80;6.72;;;;;;;17.47;100.00;101179.63;5013392;28;20493;-74
2023/09/28 01:44:05;;;;;;;7.95;5.55;;;;;;;17.45;100.00;101182.06;5013324;28;20131;-74
2023/09/28 01:46:30;;;;;;;8.55;6.47;;;;;;;17.50;100.00;101173.16;5014572;28;20029;-74
2023/09/28 01:48:56;;;;;;;9.98;6.20;;;;;;;17.49;100.00;101177.19;5019126;28;20041;-74
2023/09/28 01:51:22;;;;;;;8.05;5.13;;;;;;;17.46;100.00;101178.84;5012240;28;20087;-74
2023/09/28 01:53:48;;;;;;;8.27;5.50;;;;;;;17.48;100.00;101181.25;5012692;28;20040;-74
2023/09/28 01:56:13;;;;;;;6.45;5.05;;;;;;;17.47;100.00;101173.97;5018717;28;20030;-74
2023/09/28 01:58:38;;;;;;;8.32;5.72;;;;;;;17.41;100.00;101178.47;5023422;28;20394;-74
2023/09/28 02:01:04;;;;;;;7.75;5.53;;;;;;;17.44;100.00;101186.13;5016698;28;20041;-74
2023/09/28 02:03:29;;;;;;;10.02;6.25;;;;;;;17.42;100.00;101180.09;5023309;28;20028;-74
2023/09/28 02:05:55;;;;;;;6.40;5.65;;;;;;;17.39;100.00;101175.25;5019925;28;20258;-74
2023/09/28 02:08:21;;;;;;;7.68;5.80;;;;;;;17.39;100.00;101178.09;5013454;28;20167;-74
2023/09/28 02:10:46;;;;;;;7.95;5.93;;;;;;;17.38;100.00;101190.63;5012566;28;20033;-74
2023/09/28 02:13:11;;;;;;;8.43;5.78;;;;;;;17.26;100.00;101186.28;5011567;28;20044;-74
2023/09/28 02:15:37;;;;;;;8.77;6.88;;;;;;;17.31;100.00;101185.03;5013089;28;20041;-74
2023/09/28 02:18:04;;;;;;;7.43;5.20;;;;;;;17.31;100.00;101187.84;5017567;28;20034;-74
2023/09/28 02:20:31;;;;;;;7.78;5.35;;;;;;;17.27;100.00;101183.03;5009664;28;20107;-74
2023/09/28 02:22:57;;;;;;;7.65;5.10;;;;;;;17.30;100.00;101194.75;5013883;28;20069;-74
2023/09/28 02:25:24;;;;;;;8.38;6.28;;;;;;;17.25;100.00;101199.63;5015201;28;20052;-74
2023/09/28 02:27:51;;;;;;;6.63;5.03;;;;;;;17.23;100.00;101196.41;5012306;28;20041;-75
2023/09/28 02:30:19;;;;;;;8.38;5.25;;;;;;;17.23;100.00;101199.22;5017614;28;20108;-76
2023/09/28 02:32:49;;;;;;;6.97;5.32;;;;;;;17.15;100.00;101202.53;5014291;28;20044;-76
2023/09/28 02:35:16;;;;;;;7.05;5.07;;;;;;;17.14;100.00;101209.41;5020361;28;20056;-76
2023/09/28 02:37:44;;;;;;;8.20;4.97;;;;;;;17.09;100.00;101216.31;5017128;28;20037;-76
2023/09/28 02:40:10;;;;;;;5.95;4.88;;;;;;;17.07;100.00;101213.88;5010929;28;20095;-75
2023/09/28 02:42:35;;;;;;;8.15;5.15;;;;;;;17.05;100.00;101212.69;5011610;28;20142;-76
2023/09/28 02:45:02;;;;;;;7.70;5.05;;;;;;;17.02;100.00;101222.03;5011656;28;20363;-76
2023/09/28 02:47:29;;;;;;;8.82;5.50;;;;;;;17.07;100.00;101225.19;5017120;28;20048;-77
2023/09/28 02:49:54;;;;;;;10.85;5.40;;;;;;;17.07;100.00;101219.53;5012975;28;20086;-76
2023/09/28 02:52:20;;;;;;;5.55;4.85;;;;;;;17.07;100.00;101216.72;5018717;28;20025;-76
2023/09/28 02:54:46;;;;;;;8.48;4.85;;;;;;;17.06;100.00;101217.16;5026044;28;20032;-76
2023/09/28 02:57:12;;;;;;;8.18;4.93;;;;;;;17.05;100.00;101215.53;5020783;28;20040;-76
2023/09/28 02:59:38;;;;;;;7.00;5.05;;;;;;;17.04;100.00;101230.91;5023843;28;20021;-76
2023/09/28 03:02:05;;;;;;;9.40;5.68;;;;;;;17.00;100.00;101215.97;5021750;28;20386;-76
2023/09/28 03:04:33;;;;;;;6.22;4.80;;;;;;;16.98;100.00;101226.91;5021089;28;20456;-76
2023/09/28 03:06:59;;;;;;;6.78;4.45;;;;;;;17.00;100.00;101213.16;5019970;28;20047;-75
2023/09/28 03:09:24;;;;;;;6.13;4.70;;;;;;;16.98;100.00;101209.94;5025176;28;20033;-76
2023/09/28 03:11:50;;;;;;;8.15;5.65;;;;;;;16.96;100.00;101218.03;5020713;28;20024;-75
2023/09/28 03:14:15;;;;;;;7.45;5.13;;;;;;;16.95;100.00;101210.75;5017791;28;20520;-76
2023/09/28 03:16:40;;;;;;;6.93;5.50;;;;;;;16.94;100.00;101209.16;5023451;28;20033;-76
2023/09/28 03:19:07;;;;;;;9.07;5.75;;;;;;;16.94;100.00;101226.13;5019987;28;20405;-76
2023/09/28 03:21:35;;;;;;;7.03;5.10;;;;;;;16.91;100.00;101229.75;5020276;28;20037;-75
2023/09/28 03:24:01;;;;;;;7.88;5.93;;;;;;;16.89;100.00;101230.19;5013222;28;20438;-76
2023/09/28 03:26:28;;;;;;;6.63;4.75;;;;;;;16.88;100.00;101233.41;5012271;28;20076;-75
2023/09/28 03:28:55;;;;;;;7.95;5.78;;;;;;;16.83;100.00;101232.63;5011934;28;20076;-74
2023/09/28 03:31:21;;;;;;;8.73;5.07;;;;;;;16.82;100.00;101231.03;5011667;28;21189;-74
2023/09/28 03:33:46;;;;;;;8.02;5.60;;;;;;;16.81;100.00;101235.06;5013855;28;20032;-74
2023/09/28 03:36:12;;;;;;;7.38;5.43;;;;;;;16.79;100.00;101234.66;5015720;28;20044;-74
2023/09/28 03:38:38;;;;;;;9.07;5.43;;;;;;;16.67;100.00;101235.94;5012981;28;20052;-77
2023/09/28 03:41:07;;;;;;;5.43;4.38;;;;;;;16.61;100.00;101250.88;5011523;28;20033;-76
2023/09/28 03:43:33;;;;;;;6.90;4.70;;;;;;;16.60;100.00;101240.81;5013681;28;20029;-76
2023/09/28 03:45:58;;;;;;;8.18;5.35;;;;;;;16.65;100.00;101251.66;5011864;28;20044;-76
2023/09/28 03:48:24;;;;;;;8.00;5.43;;;;;;;16.62;100.00;101244.81;5012140;28;20056;-76
2023/09/28 03:50:50;;;;;;;8.82;5.50;;;;;;;16.70;100.00;101256.09;5017703;28;20506;-76
2023/09/28 03:53:15;;;;;;;8.02;5.88;;;;;;;16.68;100.00;101253.69;5011342;28;20033;-76
2023/09/28 03:55:42;;;;;;;8.95;5.15;;;;;;;16.70;100.00;101254.09;5014569;28;20112;-76
2023/09/28 03:58:07;;;;;;;9.63;4.93;;;;;;;16.69;100.00;101266.59;5011857;28;20478;-76
2023/09/28 04:00:33;;;;;;;6.75;5.15;;;;;;;16.66;100.00;101276.72;5009429;28;20041;-75
2023/09/28 04:02:59;;;;;;;8.80;5.50;;;;;;;16.64;100.00;101269.88;5010728;28;20124;-76
2023/09/28 04:05:24;;;;;;;5.70;4.30;;;;;;;16.63;100.00;101269.06;5022748;28;20117;-76
2023/09/28 04:07:50;;;;;;;18.00;5.57;;;;;;;16.63;100.00;101263.41;5014732;28;20554;-76
2023/09/28 04:10:15;;;;;;;7.10;5.32;;;;;;;16.57;100.00;101258.56;5014054;28;20481;-75
2023/09/28 04:12:41;;;;;;;7.22;5.00;;;;;;;16.52;100.00;101264.66;5012514;28;20485;-76
2023/09/28 04:15:07;;;;;;;6.97;4.90;;;;;;;16.53;100.00;101263.44;5012949;28;20072;-76
2023/09/28 04:17:34;;;;;;;6.78;4.95;;;;;;;16.52;100.00;101273.13;5014402;28;20029;-76
2023/09/28 04:20:00;;;;;;;7.03;4.90;;;;;;;16.52;100.00;101273.94;5013107;28;20025;-75
2023/09/28 04:22:25;;;;;;;8.73;5.63;;;;;;;16.49;100.00;101273.97;5014592;28;20044;-76
2023/09/28 04:24:51;;;;;;;7.72;5.78;;;;;;;16.46;100.00;101282.03;5013568;28;20113;-76
2023/09/28 04:27:16;;;;;;;12.35;5.60;;;;;;;16.45;100.00;101279.63;5016010;28;20050;-76
2023/09/28 04:29:42;;;;;;;9.00;5.50;;;;;;;16.37;100.00;101284.47;5016327;28;20025;-76
2023/09/28 04:32:07;;;;;;;7.00;4.90;;;;;;;16.37;100.00;101292.16;5020772;28;20029;-76
2023/09/28 04:34:33;;;;;;;7.70;4.47;;;;;;;16.39;100.00;101298.22;5021724;28;20033;-76
2023/09/28 04:37:02;;;;;;;8.88;5.10;;;;;;;16.41;100.00;101304.25;5018190;28;20490;-76
2023/09/28 04:39:27;;;;;;;7.88;5.93;;;;;;;16.31;100.00;101303.06;5027314;28;20017;-74
2023/09/28 04:41:54;;;;;;;8.55;5.47;;;;;;;16.28;100.00;101306.72;5020843;28;20056;-74
2023/09/28 04:44:20;;;;;;;6.85;4.65;;;;;;;16.32;100.00;101303.84;5017731;28;20052;-74
2023/09/28 04:46:46;;;;;;;9.00;5.70;;;;;;;16.30;100.00;101300.66;5014768;28;20102;-74
2023/09/28 04:49:12;;;;;;;9.98;5.90;;;;;;;16.31;100.00;101303.06;5013200;28;20485;-73
2023/09/28 04:51:37;;;;;;;7.22;6.00;;;;;;;16.31;100.00;101308.72;5017779;28;20026;-74
2023/09/28 04:54:04;;;;;;;9.30;5.38;;;;;;;16.27;100.00;101302.25;5012000;28;20033;-73
2023/09/28 04:56:33;;;;;;;7.97;6.05;;;;;;;16.23;100.00;101298.63;5022228;28;20022;-73
2023/09/28 04:58:59;;;;;;;7.38;5.43;;;;;;;16.22;100.00;101297.03;5013398;28;20069;-73
2023/09/28 05:01:25;;;;;;;7.47;5.22;;;;;;;16.24;100.00;101311.56;5019450;28;20033;-74
2023/09/28 05:03:50;;;;;;;7.30;5.00;;;;;;;16.25;100.00;101299.03;5010679;28;20033;-74
2023/09/28 05:06:16;;;;;;;8.88;5.28;;;;;;;16.23;100.00;101298.63;5025001;28;20168;-74
2023/09/28 05:08:41;;;;;;;10.50;6.25;;;;;;;16.24;100.00;101305.91;5012863;28;20036;-74
2023/09/28 05:11:06;;;;;;;9.02;4.97;;;;;;;16.18;100.00;101311.16;5022223;28;20033;-73
2023/09/28 05:13:32;;;;;;;8.63;5.75;;;;;;;16.09;100.00;101309.97;5014562;28;20099;-73
2023/09/28 05:15:57;;;;;;;8.15;5.22;;;;;;;16.16;100.00;101318.44;5014974;28;20040;-74
2023/09/28 05:18:23;;;;;;;8.52;5.18;;;;;;;16.18;100.00;101327.31;5013971;28;20061;-74
2023/09/28 05:20:48;;;;;;;8.13;5.43;;;;;;;16.16;100.00;101341.81;5014162;28;20042;-74
2023/09/28 05:23:14;;;;;;;8.18;5.15;;;;;;;16.16;100.00;101341.03;5018775;28;20192;-74
2023/09/28 05:25:39;;;;;;;14.25;5.53;;;;;;;16.04;100.00;101340.25;5010964;28;20037;-74
2023/09/28 05:28:05;;;;;;;5.80;4.60;;;;;;;16.14;100.00;101349.09;5014576;28;20476;-74
2023/09/28 05:30:31;;;;;;;9.05;4.95;;;;;;;16.12;100.00;101357.97;5016556;28;20112;-74
2023/09/28 05:32:56;;;;;;;12.88;5.00;;;;;;;16.11;100.00;101356.38;5017766;28;20036;-74
2023/09/28 05:35:24;;;;;;;10.55;4.80;;;;;;;16.10;100.00;101353.94;5018808;28;20128;-74
2023/09/28 05:37:50;;;;;;;9.30;4.10;;;;;;;16.13;100.00;101359.59;5018473;28;20026;-74
2023/09/28 05:40:16;;;;;;;10.00;4.07;;;;;;;16.16;100.00;101352.31;5012706;28;20040;-74
2023/09/28 05:42:42;;;;;;;10.30;4.50;;;;;;;16.14;100.00;101371.69;5017032;28;20037;-74
2023/09/28 05:45:08;;;;;;;10.93;4.63;;;;;;;16.10;100.00;101370.88;5016708;28;20060;-74
2023/09/28 05:47:34;;;;;;;13.98;4.40;;;;;;;16.13;100.00;101364.41;5012505;28;20084;-75
2023/09/28 05:50:05;;;;;;;10.63;3.63;;;;;;;16.03;100.00;101372.50;5021169;28;20030;-76
2023/09/28 05:52:31;;;;;;;13.25;3.70;;;;;;;16.34;100.00;101377.72;5011212;28;20037;-75
2023/09/28 05:54:57;;;;;;;15.15;4.15;;;;;;;16.26;100.00;101377.72;5016137;28;20088;-75
2023/09/28 05:57:23;;;;;;;9.88;4.18;;;;;;;16.19;100.00;101380.56;5017639;28;20044;-76
2023/09/28 05:59:49;;;;;;;10.48;3.83;;;;;;;16.19;100.00;101388.22;5024636;28;20030;-76
2023/09/28 06:02:14;;;;;;;9.25;3.70;;;;;;;16.14;100.00;101388.63;5026734;28;20029;-76
2023/09/28 06:04:41;;;;;;;17.15;5.50;;;;;;;16.23;100.00;101394.66;5013792;28;20044;-76
2023/09/28 06:07:07;;;;;;;13.05;3.97;;;;;;;16.24;100.00;101390.66;5019229;28;20017;-76
2023/09/28 06:09:32;;;;;;;17.73;4.85;;;;;;;16.23;100.00;101397.50;5015986;28;20559;-76
2023/09/28 06:11:58;;;;;;;10.40;3.78;;;;;;;16.18;100.00;101392.25;5008924;28;20106;-76
2023/09/28 06:14:24;;;;;;;8.43;3.58;;;;;;;16.15;100.00;101393.06;5009368;28;20056;-75
2023/09/28 06:16:49;;;;;;;11.85;3.97;;;;;;;16.07;100.00;101397.13;5016015;28;20389;-76
2023/09/28 06:19:14;;;;;;;10.98;4.00;;;;;;;16.06;100.00;101404.75;5024694;28;20496;-76
2023/09/28 06:21:40;;;;;;;9.68;4.07;;;;;;;16.18;100.00;101410.00;5015601;28;20040;-75
2023/09/28 06:24:05;;;;;;;13.52;4.35;;;;;;;16.15;100.00;101413.66;5012066;28;20378;-76
2023/09/28 06:26:32;;;;;;;8.75;3.92;;;;;;;16.16;100.00;101417.28;5018998;28;21170;-76
2023/09/28 06:28:58;;;;;;;7.75;3.53;;;;;;;16.09;100.00;101420.13;5015233;28;20037;-76
2023/09/28 06:31:23;;;;;;;9.52;4.38;;;;;;;16.17;100.00;101427.34;5020790;28;20063;-76
2023/09/28 06:33:49;;;;;;;15.00;4.88;;;;;;;16.27;100.00;101418.06;5037339;28;20036;-76
2023/09/28 06:36:16;;;;;;;11.35;4.88;;;;;;;16.22;100.00;101412.84;5031956;28;20120;-76
2023/09/28 06:38:41;;;;;;;12.82;4.25;;;;;;;16.18;100.00;101407.19;5023835;28;20053;-76
2023/09/28 06:41:07;;;;;;;11.15;4.80;;;;;;;16.14;100.00;101411.22;5020781;28;20061;-76
2023/09/28 06:43:32;;;;;;;17.55;5.60;;;;;;;16.11;100.00;101414.88;5014904;28;20025;-76
2023/09/28 06:45:58;;;;;;;11.05;4.40;;;;;;;16.21;100.00;101416.84;5020070;28;20112;-76
2023/09/28 06:48:24;;;;;;;11.77;5.03;;;;;;;16.14;100.00;101406.38;5034719;28;20029;-76
2023/09/28 06:50:50;;;;;;;15.88;4.65;;;;;;;16.13;100.00;101403.94;5031295;28;20108;-76
2023/09/28 06:53:16;;;;;;;12.48;5.15;;;;;;;16.14;100.00;101414.84;5026339;28;20105;-76
2023/09/28 06:55:43;;;;;;;12.18;4.13;;;;;;;16.23;100.00;101420.91;5032075;28;20033;-76
2023/09/28 06:58:13;;;;;;;17.02;5.50;;;;;;;16.32;100.00;101417.69;5026047;28;20084;-74
2023/09/28 07:00:39;;;;;;;9.48;3.70;;;;;;;16.26;100.00;101422.13;5022350;28;20091;-73
2023/09/28 07:03:05;;;;;;;15.70;4.00;;;;;;;16.27;100.00;101437.84;5026007;28;21098;-73
2023/09/28 07:05:33;;;;;;;16.67;4.63;;;;;;;16.28;100.00;101439.47;5032119;28;20412;-73
2023/09/28 07:07:59;;;;;;;14.98;5.25;;;;;;;16.24;100.00;101433.03;5022848;28;20048;-76
2023/09/28 07:10:25;;;;;;;9.75;3.97;;;;;;;16.28;100.00;101427.38;5034129;28;20489;-76
2023/09/28 07:12:50;;;;;;;16.50;4.90;;;;;;;16.34;100.00;101442.69;5024411;28;20041;-76
2023/09/28 07:15:16;;;;;;;14.35;3.45;;;;;;;16.36;100.00;101460.88;5027345;28;20049;-76
2023/09/28 07:17:42;;;;;;;17.88;4.22;;;;;;;16.43;100.00;101458.03;5022845;28;20021;-75
2023/09/28 07:20:09;;;;;;;13.05;4.68;;;;;;;16.46;100.00;101462.88;5030583;28;20025;-76
2023/09/28 07:22:34;;;;;;;18.27;4.57;;;;;;;16.46;100.00;101460.06;5016706;28;20045;-76
2023/09/28 07:25:00;;;;;;;16.17;3.97;;;;;;;16.46;100.00;101474.19;5023064;28;20037;-76
2023/09/28 07:27:31;;;;;;;15.77;4.05;;;;;;;16.50;100.00;101477.00;5029098;28;20025;-76
2023/09/28 07:29:57;;;;;;;16.80;5.20;;;;;;;16.57;100.00;101471.34;5025732;28;20052;-76
2023/09/28 07:32:22;;;;;;;13.32;4.10;;;;;;;16.65;100.00;101487.09;5021517;28;20120;-75
2023/09/28 07:34:48;;;;;;;23.48;4.13;;;;;;;16.65;100.00;101484.25;5024499;28;20171;-75
2023/09/28 07:37:14;;;;;;;13.65;4.82;;;;;;;16.68;100.00;101479.81;5019447;28;20075;-75
2023/09/28 07:39:40;;;;;;;18.70;5.38;;;;;;;16.71;100.00;101484.63;5007882;28;20487;-75
2023/09/28 07:42:07;;;;;;;15.40;4.30;;;;;;;16.81;100.00;101492.34;5016993;28;20120;-76
2023/09/28 07:44:33;;;;;;;14.00;4.40;;;;;;;16.83;100.00;101498.41;5025137;28;20493;-76
2023/09/28 07:46:59;;;;;;;21.02;4.63;;;;;;;16.91;100.00;101492.72;5019977;28;20037;-75
2023/09/28 07:49:24;;;;;;;11.70;3.55;;;;;;;16.93;100.00;101496.78;5021966;28;20063;-76
2023/09/28 07:51:49;;;;;;;11.63;3.78;;;;;;;16.93;100.00;101498.78;5014860;28;20112;-76
2023/09/28 07:54:15;;;;;;;16.05;5.18;;;;;;;16.97;100.00;101503.22;5013432;28;20049;-76
2023/09/28 07:56:40;;;;;;;15.70;3.45;;;;;;;17.00;100.00;101504.44;5019886;28;20049;-76
2023/09/28 07:59:06;;;;;;;15.57;3.58;;;;;;;17.01;100.00;101504.03;5018083;28;20041;-76
2023/09/28 08:01:37;;;;;;;17.27;3.90;;;;;;;17.03;100.00;101509.25;5013905;28;20128;-76
2023/09/28 08:04:02;;;;;;;20.75;5.35;;;;;;;17.04;100.00;101513.72;5013153;28;20050;-75
2023/09/28 08:06:27;;;;;;;23.48;4.50;;;;;;;17.10;100.00;101517.75;5018505;28;20029;-76
2023/09/28 08:08:53;;;;;;;22.33;4.82;;;;;;;17.15;100.00;101525.81;5013118;28;20034;-74
2023/09/28 08:11:18;;;;;;;18.42;4.10;;;;;;;17.16;100.00;101535.91;5026682;28;20031;-74
2023/09/28 08:13:44;;;;;;;22.77;3.95;;;;;;;17.19;100.00;101529.44;5014773;28;20022;-74
2023/09/28 08:16:09;;;;;;;21.85;3.83;;;;;;;17.24;100.00;101540.34;5030289;28;20065;-74
2023/09/28 08:18:35;;;;;;;19.15;4.05;;;;;;;17.27;100.00;101531.03;5017802;28;20098;-76
2023/09/28 08:21:00;;;;;;;12.77;3.65;;;;;;;17.31;100.00;101538.69;5015270;28;20048;-75
2023/09/28 08:23:26;;;;;;;12.43;3.13;;;;;;;17.30;100.00;101548.41;5020994;28;20026;-75
2023/09/28 08:25:51;;;;;;;20.98;4.10;;;;;;;17.31;100.00;101550.00;5020074;28;20575;-76
2023/09/28 08:28:17;;;;;;;16.58;3.80;;;;;;;17.31;100.00;101539.50;5026342;28;20030;-76
2023/09/28 08:30:42;;;;;;;14.75;3.97;;;;;;;17.39;100.00;101526.13;5016699;28;20030;-75
2023/09/28 08:33:08;;;;;;;12.98;3.42;;;;;;;17.45;100.00;101521.66;5015706;28;20030;-76
2023/09/28 08:35:35;;;;;;;17.98;3.92;;;;;;;17.48;100.00;101540.66;5021872;28;20021;-75
2023/09/28 08:38:01;;;;;;;16.25;3.35;;;;;;;17.55;100.00;101562.47;5013158;28;21564;-76
2023/09/28 08:40:26;;;;;;;11.85;3.20;;;;;;;17.64;100.00;101568.50;5027976;28;20525;-76
2023/09/28 08:42:56;;;;;;;20.67;3.92;;;;;;;17.62;100.00;101571.72;5032734;28;20040;-76
2023/09/28 08:45:22;;;;;;;21.15;3.65;;;;;;;17.67;100.00;101562.84;5026025;28;20043;-76
2023/09/28 08:47:49;;;;;;;17.25;3.83;;;;;;;17.65;100.00;101561.63;5028388;28;20549;-75
2023/09/28 08:50:30;;;;;;;26.40;5.18;;;;;;;17.74;100.00;101567.66;5029254;28;20481;-76
2023/09/28 08:52:56;;;;;;;18.20;4.53;;;;;;;17.73;100.00;101562.41;5022248;28;20018;-76
2023/09/28 08:55:22;;;;;;;18.10;4.18;;;;;;;17.75;100.00;101562.78;5030539;28;20112;-76
2023/09/28 08:57:48;;;;;;;20.75;3.97;;;;;;;17.83;100.00;101570.06;5036831;28;20803;-76
2023/09/28 09:00:14;;;;;;;25.05;4.07;;;;;;;17.89;100.00;101574.09;5028171;28;20041;-75
2023/09/28 09:02:43;;;;;;;17.30;3.85;;;;;;;17.91;100.00;101594.31;5019129;28;20025;-76
2023/09/28 09:05:12;;;;;;;14.02;2.90;;;;;;;17.84;100.00;101595.16;5020925;28;20037;-76
2023/09/28 09:07:37;;;;;;;11.57;2.95;;;;;;;17.82;100.00;101586.25;5021260;28;20021;-76
2023/09/28 09:10:03;;;;;;;20.13;3.58;;;;;;;17.87;100.00;101593.50;5032775;28;20047;-76
2023/09/28 09:12:32;;;;;;;21.25;4.15;;;;;;;17.89;100.00;101593.91;5040260;28;20021;-76
2023/09/28 09:14:58;;;;;;;15.20;3.80;;;;;;;17.88;100.00;101584.63;5037960;28;20585;-76
2023/09/28 09:17:32;;;;;;;20.40;4.80;;;;;;;17.80;100.00;101587.88;5037318;28;20083;-76
2023/09/28 09:19:58;;;;;;;19.85;3.75;;;;;;;17.82;100.00;101579.75;5033377;28;20067;-76
2023/09/28 09:22:28;;;;;;;16.92;4.53;;;;;;;17.89;100.00;101579.75;5033234;28;20557;-76
2023/09/28 09:25:00;;;;;;;20.60;3.55;;;;;;;17.93;100.00;101585.41;5034155;28;20036;-76
2023/09/28 09:27:30;;;;;;;20.10;3.83;;;;;;;17.96;100.00;101578.91;5031707;28;20030;-76
2023/09/28 09:30:08;;;;;;;17.80;3.38;;;;;;;17.98;100.00;101580.13;5032818;28;20042;-71
2023/09/28 09:32:35;;;;;;;21.55;4.32;;;;;;;18.13;100.00;101577.19;5024646;28;20370;-72
2023/09/28 09:35:00;;;;;;;23.80;4.55;;;;;;;18.19;100.00;101581.22;5024023;28;20033;-72
2023/09/28 09:37:26;;;;;;;17.05;3.42;;;;;;;18.17;100.00;101583.66;5028508;28;20028;-72
2023/09/28 09:39:51;;;;;;;18.50;3.38;;;;;;;18.22;100.00;101586.06;5020823;28;20474;-72
2023/09/28 09:42:27;;;;;;;18.23;3.30;;;;;;;18.22;100.00;101603.88;5021775;28;20482;-71
2023/09/28 09:44:52;;;;;;;14.18;3.33;;;;;;;18.20;100.00;101611.97;5034301;28;20460;-72
2023/09/28 09:47:19;;;;;;;14.70;4.30;;;;;;;18.15;100.00;101609.59;5026125;28;20033;-72
2023/09/28 09:49:47;;;;;;;16.75;3.20;;;;;;;18.10;100.00;101601.50;5033218;28;20029;-72
2023/09/28 09:52:14;;;;;;;12.93;4.18;;;;;;;18.15;100.00;101597.44;5020616;28;20120;-72
2023/09/28 09:54:42;;;;;;;19.75;4.32;;;;;;;18.17;100.00;101595.81;5020183;28;20033;-73
2023/09/28 09:57:09;;;;;;;11.68;3.70;;;;;;;18.27;100.00;101600.59;5024494;28;20044;-71
2023/09/28 09:59:41;;;;;;;17.35;3.92;;;;;;;18.28;100.00;101601.41;5018650;28;20084;-72
2023/09/28 10:02:18;;;;;;;17.10;4.07;;;;;;;18.34;100.00;101591.25;5020432;28;20489;-72
2023/09/28 10:04:45;;;;;;;16.27;2.97;;;;;;;18.40;100.00;101598.06;5027059;28;20032;-74
2023/09/28 10:07:12;;;;;;;20.80;3.97;;;;;;;18.48;100.00;101590.34;5029373;28;20498;-72
2023/09/28 10:09:41;;;;;;;14.07;3.83;;;;;;;18.51;100.00;101588.69;5015501;28;20061;-73
2023/09/28 10:12:08;;;;;;;10.85;3.65;;;;;;;18.56;100.00;101593.94;5027508;28;20024;-73
2023/09/28 10:14:34;;;;;;;19.40;3.47;;;;;;;18.60;100.00;101594.72;5020917;28;20474;-72
2023/09/28 10:17:00;;;;;;;18.75;5.38;;;;;;;18.57;100.00;101601.22;5017593;28;20029;-72
2023/09/28 10:19:27;;;;;;;16.27;4.97;;;;;;;18.64;100.00;101596.31;5024127;28;20040;-72
2023/09/28 10:21:55;;;;;;;15.98;3.58;;;;;;;18.65;100.00;101597.91;5030949;28;20036;-72
2023/09/28 10:24:29;;;;;;;10.05;3.13;;;;;;;18.55;100.00;101590.31;5023689;28;20517;-72
2023/09/28 10:26:55;;;;;;;21.73;4.07;;;;;;;18.59;100.00;101593.09;5025938;28;20038;-72
2023/09/28 10:29:28;;;;;;;20.52;3.83;;;;;;;18.60;100.00;101597.56;5038324;28;20040;-72
2023/09/28 10:31:54;;;;;;;20.50;3.45;;;;;;;18.59;100.00;101598.78;5031029;28;20052;-72
2023/09/28 10:34:20;;;;;;;11.55;3.25;;;;;;;18.60;100.00;101591.88;5025395;28;20033;-73
2023/09/28 10:37:06;;;;;;;13.32;2.90;;;;;;;18.59;100.00;101593.09;5040575;28;20332;-72
2023/09/28 10:39:32;;;;;;;9.52;2.40;;;;;;;18.64;100.00;101596.31;5038893;28;20078;-76
2023/09/28 10:42:15;;;;;;;17.20;3.97;;;;;;;18.75;100.00;101601.91;5025553;28;20041;-76
2023/09/28 10:44:52;;;;;;;20.90;4.32;;;;;;;18.78;100.00;101601.06;5029540;28;20396;-76
2023/09/28 10:47:19;;;;;;;18.65;3.45;;;;;;;18.77;100.00;101615.66;5024042;28;20164;-76
2023/09/28 10:49:45;;;;;;;16.98;3.30;;;;;;;18.75;100.00;101610.41;5027063;28;20030;-76
2023/09/28 10:52:11;;;;;;;13.02;3.58;;;;;;;18.72;100.00;101616.91;5017680;28;20036;-76
2023/09/28 10:54:38;;;;;;;13.20;3.20;;;;;;;18.73;100.00;101621.34;5027476;28;20116;-76
2023/09/28 10:57:03;;;;;;;17.17;4.00;;;;;;;18.69;100.00;101621.38;5021414;28;20033;-76
2023/09/28 10:59:29;;;;;;;12.20;3.75;;;;;;;18.69;100.00;101631.91;5036411;28;20029;-76
2023/09/28 11:01:54;;;;;;;13.98;2.80;;;;;;;18.75;100.00;101638.75;5024103;28;20036;-76
2023/09/28 11:04:20;;;;;;;11.40;2.85;;;;;;;18.71;100.00;101632.31;5025234;28;20486;-76
2023/09/28 11:06:45;;;;;;;15.80;3.08;;;;;;;18.71;100.00;101617.31;5031351;28;20095;-76
2023/09/28 11:09:12;;;;;;;9.13;2.85;;;;;;;18.85;100.00;101620.88;5030561;28;20036;-76